Time;durP1;ratioP1;P1;durP2;ratioP2;P2;SDS_P1;SDS_P2;PMS_P1;PMS_P2;Temp;Humidity;BMP_temperature;BMP_pressure;BME280_temperature;BME280_humidity;BME280_pressure;Samples;Min_cycle;Max_cycle;Signal;HPM_P1;HPM_P2
2022/07/09 00:01:54;;;;;;;5.50;5.10;;;;;;;18.33;100.00;94402.06;5052882;28;20305;-62
2022/07/09 00:04:19;;;;;;;6.15;5.65;;;;;;;18.22;100.00;94405.09;5053272;28;20182;-63
2022/07/09 00:06:45;;;;;;;8.80;5.88;;;;;;;18.16;100.00;94398.09;5052667;28;20248;-64
2022/07/09 00:09:12;;;;;;;6.97;6.28;;;;;;;18.13;100.00;94397.69;5053183;28;20181;-63
2022/07/09 00:11:37;;;;;;;7.78;6.65;;;;;;;18.09;100.00;94394.69;5053146;28;20217;-62
2022/07/09 00:14:03;;;;;;;9.02;7.05;;;;;;;18.22;100.00;94399.16;5052615;28;20192;-62
2022/07/09 00:16:28;;;;;;;7.90;7.05;;;;;;;18.21;100.00;94408.66;5052814;28;20267;-62
2022/07/09 00:18:55;;;;;;;9.70;8.80;;;;;;;17.79;100.00;94403.44;5053930;28;20200;-65
2022/07/09 00:21:20;;;;;;;10.25;9.15;;;;;;;17.83;100.00;94402.09;5033979;28;20217;-63
2022/07/09 00:23:46;;;;;;;9.95;8.95;;;;;;;17.88;100.00;94392.03;5052452;28;20628;-63
2022/07/09 00:26:11;;;;;;;10.18;9.20;;;;;;;17.68;100.00;94396.16;5052532;28;20217;-61
2022/07/09 00:28:37;;;;;;;10.80;9.70;;;;;;;17.48;100.00;94390.75;5035010;28;20186;-64
2022/07/09 00:31:02;;;;;;;11.70;10.48;;;;;;;17.32;100.00;94392.69;5034100;28;20208;-63
2022/07/09 00:33:27;;;;;;;12.10;11.02;;;;;;;17.25;100.00;94387.44;5052693;28;20209;-64
2022/07/09 00:35:53;;;;;;;10.07;8.98;;;;;;;17.06;100.00;94387.97;5052711;28;20194;-63
2022/07/09 00:38:18;;;;;;;10.48;8.77;;;;;;;16.95;100.00;94392.75;5051999;28;20201;-64
2022/07/09 00:40:44;;;;;;;9.98;8.98;;;;;;;16.81;100.00;94391.72;5034144;28;20251;-64
2022/07/09 00:43:17;;;;;;;9.27;7.93;;;;;;;16.79;100.00;94386.78;5052145;28;20205;-59
2022/07/09 00:45:43;;;;;;;9.30;7.10;;;;;;;16.77;100.00;94382.78;5052078;28;20259;-65
2022/07/09 00:48:08;;;;;;;6.95;6.35;;;;;;;16.72;100.00;94383.28;5051910;28;20232;-64
2022/07/09 00:50:34;;;;;;;7.78;7.03;;;;;;;16.64;100.00;94380.78;5033861;28;20663;-64
2022/07/09 00:52:59;;;;;;;9.40;8.50;;;;;;;16.65;100.00;94376.47;5033854;28;20213;-61
2022/07/09 00:55:25;;;;;;;8.88;7.97;;;;;;;16.68;100.00;94379.47;5034086;28;20189;-65
2022/07/09 00:57:51;;;;;;;7.85;7.05;;;;;;;16.63;100.00;94374.09;5034040;28;20245;-63
2022/07/09 01:00:18;;;;;;;6.75;6.20;;;;;;;16.54;100.00;94374.34;5051987;28;20216;-64
2022/07/09 01:02:45;;;;;;;7.60;5.95;;;;;;;16.56;100.00;94372.38;5051688;28;20213;-65
2022/07/09 01:05:10;;;;;;;7.53;5.97;;;;;;;16.51;100.00;94361.81;5051707;28;20213;-64
2022/07/09 01:07:36;;;;;;;6.22;5.60;;;;;;;16.50;100.00;94358.44;5051467;28;20262;-65
2022/07/09 01:10:02;;;;;;;6.50;4.97;;;;;;;16.43;100.00;94357.53;5051634;28;20208;-64
2022/07/09 01:12:28;;;;;;;5.55;5.05;;;;;;;16.44;100.00;94364.25;5034378;28;20209;-64
2022/07/09 01:15:00;;;;;;;6.28;5.68;;;;;;;16.38;100.00;94362.38;5052075;28;20276;-63
2022/07/09 01:17:26;;;;;;;6.60;5.95;;;;;;;16.33;100.00;94356.16;5052070;28;20214;-61
2022/07/09 01:19:54;;;;;;;6.70;5.40;;;;;;;16.41;100.00;94354.34;5051926;28;20232;-59
2022/07/09 01:22:19;;;;;;;6.40;5.80;;;;;;;16.43;100.00;94354.97;5051712;28;20212;-60
2022/07/09 01:24:45;;;;;;;6.43;5.50;;;;;;;16.51;100.00;94357.50;5051442;28;20665;-60
2022/07/09 01:27:11;;;;;;;5.22;4.72;;;;;;;16.30;100.00;94353.97;5054295;28;20263;-59
2022/07/09 01:29:37;;;;;;;5.65;5.15;;;;;;;16.24;100.00;94350.28;5055469;28;20280;-61
2022/07/09 01:32:03;;;;;;;5.85;5.28;;;;;;;16.28;100.00;94348.19;5021136;28;20215;-64
2022/07/09 01:34:29;;;;;;;6.55;5.88;;;;;;;16.29;100.00;94349.78;5055577;28;20189;-65
2022/07/09 01:36:54;;;;;;;5.53;4.95;;;;;;;16.30;100.00;94348.81;5055791;28;20247;-64
2022/07/09 01:39:20;;;;;;;5.78;5.28;;;;;;;16.34;100.00;94353.41;5055468;28;20192;-63
2022/07/09 01:41:45;;;;;;;6.40;4.90;;;;;;;16.28;100.00;94346.41;5055863;28;20209;-64
2022/07/09 01:44:10;;;;;;;5.35;4.85;;;;;;;16.33;100.00;94346.72;5055316;28;20197;-63
2022/07/09 01:46:36;;;;;;;6.25;4.90;;;;;;;16.30;100.00;94349.59;5055619;28;20687;-60
2022/07/09 01:49:01;;;;;;;5.32;4.82;;;;;;;16.35;100.00;94346.53;5037387;28;20632;-60
2022/07/09 01:51:27;;;;;;;5.95;5.35;;;;;;;16.36;100.00;94346.34;5055255;28;20240;-64
2022/07/09 01:53:52;;;;;;;4.80;4.40;;;;;;;16.34;100.00;94338.03;5055279;28;20182;-65
2022/07/09 01:56:18;;;;;;;5.03;4.50;;;;;;;16.35;100.00;94339.63;5037167;28;20206;-63
2022/07/09 01:58:44;;;;;;;4.97;4.57;;;;;;;16.37;100.00;94342.03;5055029;28;20185;-62
2022/07/09 02:01:09;;;;;;;5.65;4.10;;;;;;;16.30;100.00;94347.03;5055251;28;20193;-60
2022/07/09 02:03:35;;;;;;;4.70;4.15;;;;;;;16.25;100.00;94351.91;5055189;28;20256;-63
2022/07/09 02:06:00;;;;;;;4.55;4.25;;;;;;;16.27;100.00;94349.97;5054919;28;20247;-63
2022/07/09 02:08:26;;;;;;;4.57;4.20;;;;;;;16.30;100.00;94356.53;5054978;28;20182;-63
2022/07/09 02:10:52;;;;;;;4.75;3.95;;;;;;;16.24;100.00;94357.97;5054861;28;20678;-62
2022/07/09 02:13:17;;;;;;;5.63;4.20;;;;;;;16.26;100.00;94357.84;5054706;28;20212;-61
2022/07/09 02:15:43;;;;;;;4.40;4.00;;;;;;;16.24;100.00;94352.84;5054793;28;20260;-61
2022/07/09 02:18:09;;;;;;;5.43;4.22;;;;;;;16.21;100.00;94349.84;5054659;28;20209;-64
2022/07/09 02:20:34;;;;;;;6.53;4.30;;;;;;;16.23;100.00;94355.59;5054612;28;20174;-63
2022/07/09 02:22:59;;;;;;;4.03;3.72;;;;;;;16.25;100.00;94357.03;5054614;28;20217;-63
2022/07/09 02:25:25;;;;;;;4.22;3.88;;;;;;;16.23;100.00;94358.16;5054351;28;20173;-59
2022/07/09 02:27:50;;;;;;;4.47;4.07;;;;;;;16.24;100.00;94367.47;5055273;28;20224;-63
2022/07/09 02:30:16;;;;;;;4.03;3.70;;;;;;;16.16;100.00;94357.25;5054421;28;20705;-62
2022/07/09 02:32:41;;;;;;;5.75;4.05;;;;;;;16.13;100.00;94358.41;5054508;28;20210;-62
2022/07/09 02:35:07;;;;;;;4.03;3.72;;;;;;;16.17;100.00;94362.22;5061430;22;20222;-59
2022/07/09 02:37:33;;;;;;;3.75;3.45;;;;;;;16.18;100.00;94357.91;5053688;28;20216;-61
2022/07/09 02:39:59;;;;;;;3.40;3.20;;;;;;;16.10;100.00;94352.81;5054453;28;20189;-65
2022/07/09 02:42:25;;;;;;;3.85;3.55;;;;;;;16.14;100.00;94369.47;5054078;28;20215;-64
2022/07/09 02:44:51;;;;;;;3.70;3.40;;;;;;;16.08;100.00;94363.22;5054146;28;20753;-62
2022/07/09 02:47:16;;;;;;;4.63;3.33;;;;;;;16.13;100.00;94360.97;5054267;28;20305;-64
2022/07/09 02:49:42;;;;;;;3.70;3.40;;;;;;;16.11;100.00;94365.47;5054380;28;20220;-63
2022/07/09 02:52:07;;;;;;;4.22;3.72;;;;;;;16.15;100.00;94366.72;5054648;28;20220;-59
2022/07/09 02:54:34;;;;;;;5.05;3.53;;;;;;;16.11;100.00;94375.72;5054349;28;20655;-64
2022/07/09 02:57:00;;;;;;;3.72;3.42;;;;;;;16.14;100.00;94375.38;5054268;28;20705;-63
2022/07/09 02:59:26;;;;;;;4.10;3.80;;;;;;;16.16;100.00;94375.22;5054129;28;20276;-63
2022/07/09 03:01:51;;;;;;;4.68;3.78;;;;;;;16.25;100.00;94375.00;5053834;28;20227;-63
2022/07/09 03:04:17;;;;;;;4.07;3.53;;;;;;;16.24;100.00;94373.38;5054267;28;20643;-62
2022/07/09 03:06:43;;;;;;;3.80;3.28;;;;;;;16.38;100.00;94385.47;5053692;28;20569;-62
2022/07/09 03:09:08;;;;;;;4.55;3.63;;;;;;;16.36;100.00;94389.19;5036030;28;20200;-63
2022/07/09 03:11:34;;;;;;;4.40;3.63;;;;;;;16.30;100.00;94385.53;5053572;28;20209;-63
2022/07/09 03:13:59;;;;;;;8.05;4.60;;;;;;;16.34;100.00;94375.72;5054335;28;20192;-60
2022/07/09 03:16:24;;;;;;;7.57;4.30;;;;;;;16.29;100.00;94378.00;5053846;28;20206;-64
2022/07/09 03:18:50;;;;;;;4.50;4.10;;;;;;;16.31;100.00;94374.31;5053701;28;20213;-64
2022/07/09 03:21:16;;;;;;;4.72;4.10;;;;;;;16.30;100.00;94377.81;5053605;28;20216;-64
2022/07/09 03:23:41;;;;;;;5.55;4.15;;;;;;;16.38;100.00;94380.31;5053335;28;20181;-64
2022/07/09 03:26:14;;;;;;;3.75;3.45;;;;;;;16.40;100.00;94372.47;5035383;28;20227;-65
2022/07/09 03:28:39;;;;;;;3.97;3.67;;;;;;;16.33;100.00;94372.38;5053797;28;20209;-64
2022/07/09 03:31:05;;;;;;;4.05;3.72;;;;;;;16.45;100.00;94377.88;5053607;28;20594;-63
2022/07/09 03:33:30;;;;;;;7.78;4.90;;;;;;;16.46;100.00;94377.69;5053727;28;20322;-63
2022/07/09 03:35:56;;;;;;;4.20;3.80;;;;;;;16.51;100.00;94375.47;5053232;28;20184;-63
2022/07/09 03:38:22;;;;;;;7.22;4.13;;;;;;;16.68;100.00;94379.47;5053471;28;20217;-63
2022/07/09 03:40:48;;;;;;;3.50;3.20;;;;;;;16.47;100.00;94379.31;5053062;28;20659;-62
2022/07/09 03:43:13;;;;;;;3.80;3.50;;;;;;;16.43;100.00;94375.50;5035053;28;20220;-62
2022/07/09 03:45:39;;;;;;;4.85;3.85;;;;;;;16.44;100.00;94369.38;5035670;28;20194;-63
2022/07/09 03:48:05;;;;;;;3.90;3.60;;;;;;;16.46;100.00;94379.50;5052815;28;20209;-63
2022/07/09 03:50:31;;;;;;;4.40;4.00;;;;;;;16.45;100.00;94375.31;5034819;28;20428;-63
2022/07/09 03:52:57;;;;;;;4.28;3.38;;;;;;;16.45;100.00;94378.69;5034890;28;20583;-64
2022/07/09 03:55:23;;;;;;;4.05;3.60;;;;;;;16.44;100.00;94378.88;5053262;28;20185;-63
2022/07/09 03:57:48;;;;;;;3.95;3.65;;;;;;;16.48;100.00;94378.34;5052834;28;20205;-64
2022/07/09 04:00:14;;;;;;;3.70;3.42;;;;;;;16.46;100.00;94382.84;5052834;28;20181;-64
2022/07/09 04:02:39;;;;;;;3.83;3.50;;;;;;;16.44;100.00;94381.44;5052953;28;20286;-64
2022/07/09 04:05:06;;;;;;;4.15;3.83;;;;;;;16.40;100.00;94380.94;5052889;28;20610;-64
2022/07/09 04:07:31;;;;;;;4.07;3.50;;;;;;;16.40;100.00;94373.25;5052648;28;20296;-64
2022/07/09 04:09:57;;;;;;;5.25;3.92;;;;;;;16.38;100.00;94375.19;5052910;28;20272;-63
2022/07/09 04:12:22;;;;;;;4.50;3.65;;;;;;;16.37;100.00;94375.38;5052470;28;20270;-64
2022/07/09 04:14:48;;;;;;;3.85;3.55;;;;;;;16.42;100.00;94379.00;5052643;28;20186;-64
2022/07/09 04:17:13;;;;;;;5.70;3.83;;;;;;;16.46;100.00;94390.53;5052831;28;20251;-64
2022/07/09 04:19:39;;;;;;;3.53;3.30;;;;;;;16.47;100.00;94388.78;5052702;28;20193;-64
2022/07/09 04:22:04;;;;;;;4.10;3.80;;;;;;;16.45;100.00;94398.41;5052386;28;20209;-60
2022/07/09 04:24:30;;;;;;;4.20;3.90;;;;;;;16.38;100.00;94394.94;5034416;28;20204;-59
2022/07/09 04:26:56;;;;;;;4.63;4.10;;;;;;;16.42;100.00;94394.41;5034564;28;20728;-60
2022/07/09 04:29:22;;;;;;;4.35;3.95;;;;;;;16.39;100.00;94392.19;5034479;28;20655;-63
2022/07/09 04:31:47;;;;;;;5.03;4.50;;;;;;;16.38;100.00;94400.09;5052007;28;20243;-62
2022/07/09 04:34:12;;;;;;;8.43;5.38;;;;;;;16.41;100.00;94400.53;5052344;28;20178;-63
2022/07/09 04:36:38;;;;;;;5.97;4.72;;;;;;;16.41;100.00;94399.72;5052110;28;20209;-61
2022/07/09 04:39:04;;;;;;;7.78;5.60;;;;;;;16.39;100.00;94393.97;5052066;28;20189;-63
2022/07/09 04:41:30;;;;;;;8.15;5.97;;;;;;;16.43;100.00;94393.47;5034192;28;20768;-61
2022/07/09 04:43:56;;;;;;;5.05;4.50;;;;;;;16.38;100.00;94384.69;5052126;28;20197;-62
2022/07/09 04:46:22;;;;;;;5.80;5.10;;;;;;;16.47;100.00;94393.91;5034076;28;20664;-62
2022/07/09 04:48:48;;;;;;;6.20;5.30;;;;;;;16.48;100.00;94385.25;5052195;28;20259;-65
2022/07/09 04:51:13;;;;;;;5.88;4.72;;;;;;;16.56;100.00;94390.34;5051894;28;20178;-64
2022/07/09 04:53:39;;;;;;;5.28;4.32;;;;;;;16.59;100.00;94388.22;5034067;28;20562;-63
2022/07/09 04:56:04;;;;;;;4.60;4.20;;;;;;;16.53;100.00;94388.91;5052113;28;20181;-64
2022/07/09 04:58:32;;;;;;;7.80;5.47;;;;;;;16.51;100.00;94383.16;5052087;28;20758;-64
2022/07/09 05:00:58;;;;;;;7.05;5.55;;;;;;;16.52;100.00;94387.31;5051662;28;20264;-64
2022/07/09 05:03:24;;;;;;;5.00;4.60;;;;;;;16.56;100.00;94392.91;5052017;28;20193;-64
2022/07/09 05:05:52;;;;;;;6.43;5.13;;;;;;;16.60;100.00;94389.81;5051624;28;20715;-61
2022/07/09 05:08:18;;;;;;;6.13;5.10;;;;;;;16.69;100.00;94391.34;5051847;28;20740;-63
2022/07/09 05:10:44;;;;;;;6.53;5.10;;;;;;;16.60;100.00;94387.25;5051758;28;20268;-62
2022/07/09 05:13:10;;;;;;;24.08;17.10;;;;;;;16.62;100.00;94392.22;5033714;28;20209;-61
2022/07/09 05:15:35;;;;;;;17.23;13.65;;;;;;;16.71;100.00;94402.25;5033765;28;20189;-63
2022/07/09 05:18:01;;;;;;;5.05;4.65;;;;;;;16.69;100.00;94398.25;5051621;28;20206;-59
2022/07/09 05:20:27;;;;;;;5.32;4.82;;;;;;;16.71;100.00;94404.81;5051659;28;20268;-63
2022/07/09 05:22:52;;;;;;;5.07;4.55;;;;;;;16.72;100.00;94403.84;5032540;28;20228;-64
2022/07/09 05:25:18;;;;;;;8.95;6.03;;;;;;;16.75;100.00;94405.25;5051432;28;20182;-63
2022/07/09 05:27:45;;;;;;;5.50;4.90;;;;;;;16.72;100.00;94403.84;5033956;28;20308;-60
2022/07/09 05:30:14;;;;;;;7.38;5.47;;;;;;;16.68;100.00;94406.94;5051599;28;20193;-64
2022/07/09 05:32:39;;;;;;;5.18;4.40;;;;;;;16.57;100.00;94410.69;5051386;28;20205;-64
2022/07/09 05:35:05;;;;;;;5.65;5.15;;;;;;;16.60;100.00;94415.47;5051184;28;20756;-64
2022/07/09 05:37:31;;;;;;;7.22;4.57;;;;;;;16.61;100.00;94413.72;5051424;28;20205;-63
2022/07/09 05:39:57;;;;;;;7.43;4.88;;;;;;;16.54;100.00;94415.38;5051590;28;20190;-60
2022/07/09 05:42:23;;;;;;;5.90;5.40;;;;;;;16.63;100.00;94420.28;5051574;28;20209;-62
2022/07/09 05:44:49;;;;;;;7.45;4.53;;;;;;;16.68;100.00;94417.22;5051346;28;20182;-63
2022/07/09 05:47:15;;;;;;;4.93;4.47;;;;;;;16.68;100.00;94423.13;5051187;28;20611;-61
2022/07/09 05:49:41;;;;;;;4.65;3.80;;;;;;;16.70;100.00;94423.75;5051555;28;20197;-62
2022/07/09 05:52:06;;;;;;;4.85;3.95;;;;;;;16.74;100.00;94421.66;5051225;28;20265;-62
2022/07/09 05:54:32;;;;;;;4.20;3.80;;;;;;;16.83;100.00;94422.38;5051542;28;20177;-62
2022/07/09 05:56:57;;;;;;;3.75;3.45;;;;;;;16.93;100.00;94421.16;5051291;28;20273;-63
2022/07/09 05:59:23;;;;;;;4.70;4.30;;;;;;;17.16;100.00;94423.69;5050670;28;20198;-64
2022/07/09 06:01:48;;;;;;;4.10;3.70;;;;;;;17.12;100.00;94428.38;5051131;28;20210;-66
2022/07/09 06:04:14;;;;;;;27.98;21.15;;;;;;;16.97;100.00;94422.41;5053226;28;20193;-65
2022/07/09 06:06:40;;;;;;;4.38;3.97;;;;;;;16.85;100.00;94423.78;5033187;28;20291;-64
2022/07/09 06:09:05;;;;;;;11.18;5.97;;;;;;;16.97;100.00;94422.41;5051315;28;20186;-64
2022/07/09 06:11:31;;;;;;;5.93;4.65;;;;;;;16.99;100.00;94429.97;5052473;28;20217;-63
2022/07/09 06:13:56;;;;;;;6.15;4.05;;;;;;;16.89;100.00;94421.69;5054729;28;20178;-64
2022/07/09 06:16:21;;;;;;;4.97;4.03;;;;;;;16.84;100.00;94423.97;5055042;28;20277;-63
2022/07/09 06:18:47;;;;;;;5.30;3.70;;;;;;;16.85;100.00;94428.94;5054844;28;20190;-60
2022/07/09 06:21:12;;;;;;;5.90;4.55;;;;;;;16.84;100.00;94432.47;5054980;28;20169;-64
2022/07/09 06:23:38;;;;;;;5.53;3.65;;;;;;;16.82;100.00;94436.19;5054681;28;20239;-64
2022/07/09 06:26:04;;;;;;;5.50;3.88;;;;;;;16.91;100.00;94432.59;5054814;28;20209;-64
2022/07/09 06:28:29;;;;;;;4.82;4.00;;;;;;;16.83;100.00;94430.09;5054801;28;20263;-64
2022/07/09 06:30:54;;;;;;;8.52;4.18;;;;;;;16.73;100.00;94435.44;5054436;28;20626;-65
2022/07/09 06:33:20;;;;;;;6.13;4.03;;;;;;;16.77;100.00;94434.94;5054818;28;20193;-60
2022/07/09 06:35:45;;;;;;;4.85;3.25;;;;;;;16.74;100.00;94430.16;5054612;28;20197;-63
2022/07/09 06:38:11;;;;;;;21.73;15.52;;;;;;;16.79;100.00;94435.56;5054336;28;20224;-62
2022/07/09 06:40:36;;;;;;;6.72;5.93;;;;;;;16.81;100.00;94437.16;5054579;28;20708;-63
2022/07/09 06:43:02;;;;;;;6.50;4.25;;;;;;;16.76;100.00;94443.63;5054452;28;20702;-62
2022/07/09 06:45:27;;;;;;;4.72;3.33;;;;;;;16.78;100.00;94444.25;5036485;28;20547;-63
2022/07/09 06:47:52;;;;;;;4.93;3.13;;;;;;;16.83;100.00;94440.38;5053998;28;20224;-63
2022/07/09 06:50:18;;;;;;;6.43;4.25;;;;;;;16.74;100.00;94434.50;5054061;28;20705;-63
2022/07/09 06:52:44;;;;;;;5.30;4.20;;;;;;;16.90;100.00;94441.25;5054099;28;20213;-64
2022/07/09 06:55:10;;;;;;;8.32;5.40;;;;;;;16.93;100.00;94438.34;5036756;28;20197;-61
2022/07/09 06:57:36;;;;;;;4.75;4.30;;;;;;;16.86;100.00;94445.13;5037993;28;20212;-65
2022/07/09 07:00:04;;;;;;;3.95;3.42;;;;;;;16.87;100.00;94447.53;5055456;28;20201;-65
2022/07/09 07:02:30;;;;;;;5.10;4.35;;;;;;;16.86;100.00;94440.81;5054176;28;20237;-61
2022/07/09 07:04:55;;;;;;;6.03;4.22;;;;;;;16.94;100.00;94437.38;5035963;28;20602;-61
2022/07/09 07:07:21;;;;;;;4.97;4.22;;;;;;;16.94;100.00;94440.75;5053645;28;20693;-61
2022/07/09 07:09:46;;;;;;;5.53;4.38;;;;;;;17.07;100.00;94442.72;5054594;28;20184;-62
2022/07/09 07:12:13;;;;;;;4.85;4.35;;;;;;;17.16;100.00;94445.03;5053598;28;20214;-61
2022/07/09 07:14:38;;;;;;;6.85;4.95;;;;;;;17.21;100.00;94450.44;5054375;28;20585;-63
2022/07/09 07:17:04;;;;;;;8.35;7.32;;;;;;;17.28;100.00;94442.84;5053531;28;20200;-64
2022/07/09 07:19:30;;;;;;;8.00;6.90;;;;;;;17.29;100.00;94447.00;5035952;28;20631;-64
2022/07/09 07:21:55;;;;;;;7.93;6.70;;;;;;;17.30;100.00;94449.41;5036599;28;20565;-60
2022/07/09 07:24:20;;;;;;;6.93;4.80;;;;;;;17.25;100.00;94436.25;5052792;28;20189;-64
2022/07/09 07:26:46;;;;;;;4.55;4.15;;;;;;;17.21;100.00;94452.22;5036140;28;20272;-59
2022/07/09 07:29:11;;;;;;;6.32;4.55;;;;;;;17.34;100.00;94442.13;5036297;28;20312;-62
2022/07/09 07:31:37;;;;;;;4.28;3.88;;;;;;;17.33;100.00;94450.81;5035275;28;20685;-63
2022/07/09 07:34:02;;;;;;;4.45;4.05;;;;;;;17.51;100.00;94448.75;5053473;28;20204;-60
2022/07/09 07:36:28;;;;;;;5.00;4.50;;;;;;;17.63;100.00;94446.53;5053454;28;20204;-61
2022/07/09 07:38:54;;;;;;;6.35;4.68;;;;;;;17.72;100.00;94443.69;5053897;28;20200;-64
2022/07/09 07:41:20;;;;;;;18.95;15.65;;;;;;;17.71;100.00;94442.09;5036045;28;20296;-62
2022/07/09 07:43:47;;;;;;;7.55;4.93;;;;;;;17.73;100.00;94436.78;5054051;28;20216;-62
2022/07/09 07:46:13;;;;;;;5.10;4.18;;;;;;;17.64;100.00;94443.78;5053500;28;20228;-62
2022/07/09 07:48:41;;;;;;;5.22;4.72;;;;;;;17.77;100.00;94446.53;5053673;28;20190;-59
2022/07/09 07:51:09;;;;;;;5.32;4.82;;;;;;;17.79;100.00;94448.91;5035624;28;20211;-63
2022/07/09 07:53:35;;;;;;;5.03;4.47;;;;;;;17.66;100.00;94446.16;5035964;28;20189;-64
2022/07/09 07:56:02;;;;;;;4.43;4.03;;;;;;;17.72;100.00;94451.38;5053184;28;20209;-66
2022/07/09 07:58:27;;;;;;;8.18;7.32;;;;;;;17.75;100.00;94443.34;5052873;28;20190;-65
2022/07/09 08:00:53;;;;;;;5.18;4.68;;;;;;;17.77;100.00;94441.38;5035466;28;20622;-60
2022/07/09 08:03:19;;;;;;;4.13;3.83;;;;;;;17.95;100.00;94441.81;5053534;28;20243;-62
2022/07/09 08:05:45;;;;;;;4.15;3.75;;;;;;;18.00;100.00;94442.06;5035689;28;20196;-60
2022/07/09 08:08:10;;;;;;;6.97;4.47;;;;;;;18.13;100.00;94444.78;5034730;28;20213;-62
2022/07/09 08:10:37;;;;;;;4.43;4.03;;;;;;;18.36;100.00;94440.28;5053169;28;20789;-60
2022/07/09 08:13:03;;;;;;;3.88;3.58;;;;;;;18.12;100.00;94444.97;5052773;28;20236;-62
2022/07/09 08:15:29;;;;;;;6.78;4.55;;;;;;;18.21;100.00;94444.69;5052573;28;20189;-64
2022/07/09 08:17:54;;;;;;;4.63;4.13;;;;;;;18.18;100.00;94445.03;5052231;28;20206;-64
2022/07/09 08:20:20;;;;;;;6.82;4.32;;;;;;;18.18;100.00;94432.16;5035112;28;20671;-64
2022/07/09 08:22:46;;;;;;;7.10;6.35;;;;;;;18.31;100.00;94434.09;5052514;28;20194;-61
2022/07/09 08:25:12;;;;;;;7.28;4.90;;;;;;;18.40;100.00;94438.16;5052297;28;20243;-62
2022/07/09 08:27:37;;;;;;;11.88;9.05;;;;;;;18.49;100.00;94434.50;5051979;28;20213;-61
2022/07/09 08:30:03;;;;;;;4.47;4.07;;;;;;;18.37;100.00;94438.50;5052312;28;20239;-60
2022/07/09 08:32:29;;;;;;;6.88;5.07;;;;;;;18.27;100.00;94443.16;5052398;28;20554;-62
2022/07/09 08:34:54;;;;;;;7.18;5.30;;;;;;;18.25;100.00;94440.78;5052277;28;20192;-63
2022/07/09 08:37:20;;;;;;;5.70;3.78;;;;;;;18.29;100.00;94444.56;5052088;28;20207;-62
2022/07/09 08:39:45;;;;;;;4.75;4.28;;;;;;;18.38;100.00;94445.28;5052220;28;20567;-62
2022/07/09 08:42:11;;;;;;;4.97;3.70;;;;;;;18.42;100.00;94451.66;5051866;28;20243;-63
2022/07/09 08:44:42;;;;;;;4.57;4.13;;;;;;;18.41;100.00;94465.47;5034460;28;20219;-64
2022/07/09 08:47:11;;;;;;;11.38;5.57;;;;;;;18.30;100.00;94458.25;5052045;28;20229;-61
2022/07/09 08:49:37;;;;;;;5.20;3.78;;;;;;;18.15;100.00;94460.03;5034817;28;20246;-61
2022/07/09 08:52:03;;;;;;;6.97;4.38;;;;;;;18.04;100.00;94457.94;5034389;28;20209;-61
2022/07/09 08:54:31;;;;;;;8.43;5.32;;;;;;;18.21;100.00;94454.19;5052325;28;20190;-63
2022/07/09 08:56:56;;;;;;;6.38;4.75;;;;;;;18.18;100.00;94457.91;5051591;28;20213;-61
2022/07/09 08:59:21;;;;;;;8.98;5.15;;;;;;;18.37;100.00;94447.03;5051778;28;20197;-63
2022/07/09 09:01:47;;;;;;;15.02;9.63;;;;;;;18.50;100.00;94454.13;5033798;28;20204;-65
2022/07/09 09:04:12;;;;;;;9.27;6.07;;;;;;;18.57;100.00;94457.56;5051687;28;20679;-63
2022/07/09 09:06:39;;;;;;;9.02;6.68;;;;;;;18.62;100.00;94457.81;5051506;28;20597;-63
2022/07/09 09:09:07;;;;;;;8.27;4.57;;;;;;;18.55;100.00;94461.28;5052190;28;20298;-63
2022/07/09 09:11:35;;;;;;;7.30;5.70;;;;;;;18.43;100.00;94461.78;5051446;28;20205;-63
2022/07/09 09:14:01;;;;;;;8.55;5.13;;;;;;;18.43;100.00;94454.06;5051986;28;20197;-63
2022/07/09 09:16:26;;;;;;;4.97;4.57;;;;;;;18.39;100.00;94449.44;5051509;28;20299;-62
2022/07/09 09:18:53;;;;;;;5.35;4.30;;;;;;;18.37;100.00;94459.91;5051571;28;20783;-62
2022/07/09 09:21:21;;;;;;;5.45;4.88;;;;;;;18.37;100.00;94452.19;5051396;28;20228;-63
2022/07/09 09:23:52;;;;;;;5.70;4.38;;;;;;;18.41;100.00;94461.13;5051477;28;20257;-64
2022/07/09 09:26:23;;;;;;;5.95;4.78;;;;;;;18.55;100.00;94461.28;5051422;28;20213;-63
2022/07/09 09:28:54;;;;;;;5.05;4.15;;;;;;;18.56;100.00;94463.72;5051708;28;20217;-63
2022/07/09 09:31:23;;;;;;;4.75;4.35;;;;;;;18.61;100.00;94461.38;5051489;28;20213;-63
2022/07/09 09:33:50;;;;;;;4.80;4.20;;;;;;;18.69;100.00;94457.88;5051843;28;20309;-63
2022/07/09 09:36:45;;;;;;;7.95;6.28;;;;;;;18.80;100.00;94459.97;5051283;28;20208;-63
2022/07/09 09:39:19;;;;;;;7.30;4.68;;;;;;;18.76;100.00;94458.75;5052116;28;20221;-63
2022/07/09 09:41:50;;;;;;;4.40;4.00;;;;;;;18.83;100.00;94449.28;5033405;28;20212;-64
2022/07/09 09:44:21;;;;;;;4.85;4.45;;;;;;;18.93;100.00;94454.91;5051616;28;20193;-60
2022/07/09 09:46:47;;;;;;;4.93;4.53;;;;;;;19.10;100.00;94451.09;5052257;28;20292;-64
2022/07/09 09:49:15;;;;;;;8.07;5.07;;;;;;;19.35;100.00;94454.91;5055984;28;20194;-63
2022/07/09 09:51:50;;;;;;;8.10;4.95;;;;;;;19.65;100.00;94450.34;5037487;28;20209;-63
2022/07/09 09:54:18;;;;;;;5.30;4.80;;;;;;;19.96;100.00;94495.34;5055606;28;20632;-63
2022/07/09 09:56:44;;;;;;;5.15;4.75;;;;;;;20.16;100.00;94510.94;5054974;28;20292;-60
2022/07/09 09:59:10;;;;;;;4.53;4.13;;;;;;;20.09;100.00;94479.94;5055284;28;20264;-60
2022/07/09 10:01:37;;;;;;;5.00;4.40;;;;;;;20.42;100.00;94505.13;5054792;28;20201;-60
2022/07/09 10:04:03;;;;;;;6.28;4.63;;;;;;;20.37;100.00;94535.88;5055353;28;20227;-65
2022/07/09 10:06:29;;;;;;;5.57;4.05;;;;;;;20.37;100.00;94539.28;5020536;28;20217;-62
2022/07/09 10:08:55;;;;;;;4.40;4.00;;;;;;;20.41;100.00;94508.69;5055061;28;20188;-64
2022/07/09 10:11:22;;;;;;;4.00;3.70;;;;;;;20.37;100.00;94517.81;5054885;28;20220;-63
2022/07/09 10:13:56;;;;;;;5.70;4.30;;;;;;;20.15;100.00;94503.38;5055084;28;20600;-64
2022/07/09 10:16:38;;;;;;;5.65;3.65;;;;;;;20.06;100.00;94497.56;5055005;28;20225;-64
2022/07/09 10:19:05;;;;;;;5.63;4.22;;;;;;;20.34;100.00;94500.13;5054989;28;20631;-66
2022/07/09 10:21:41;;;;;;;3.67;3.30;;;;;;;20.11;100.00;94502.97;5036598;28;20217;-65
2022/07/09 10:24:09;;;;;;;5.47;3.70;;;;;;;20.07;100.00;94489.66;5054885;28;20652;-64
2022/07/09 10:26:42;;;;;;;3.65;3.38;;;;;;;19.98;100.00;94495.16;5036686;28;20205;-61
2022/07/09 10:29:26;;;;;;;4.70;3.88;;;;;;;20.15;100.00;94478.38;5054998;28;20271;-63
2022/07/09 10:31:53;;;;;;;4.43;3.97;;;;;;;20.12;100.00;94498.63;5054346;28;20216;-64
2022/07/09 10:34:36;;;;;;;3.97;3.67;;;;;;;19.99;100.00;94469.19;5054347;28;20207;-64
2022/07/09 10:37:04;;;;;;;3.83;3.53;;;;;;;19.77;100.00;94462.50;5054562;28;20640;-60
2022/07/09 10:39:31;;;;;;;4.10;3.67;;;;;;;19.76;100.00;94458.31;5054361;28;20197;-62
2022/07/09 10:42:06;;;;;;;4.15;3.65;;;;;;;19.99;100.00;94481.28;5035668;28;20208;-60
2022/07/09 10:44:40;;;;;;;3.97;3.40;;;;;;;19.99;100.00;94520.78;5036327;28;20243;-59
2022/07/09 10:47:06;;;;;;;4.70;3.58;;;;;;;19.97;100.00;94511.63;5054082;28;20711;-60
2022/07/09 10:49:36;;;;;;;3.75;3.45;;;;;;;19.72;100.00;94472.59;5019942;28;20201;-61
2022/07/09 10:52:02;;;;;;;3.55;3.33;;;;;;;19.41;100.00;94490.25;5054039;28;20201;-59
2022/07/09 10:54:28;;;;;;;4.65;3.25;;;;;;;19.76;100.00;94471.22;5054022;28;20190;-61
2022/07/09 10:56:54;;;;;;;4.28;3.42;;;;;;;20.05;100.00;94463.25;5036104;28;20562;-60
2022/07/09 10:59:21;;;;;;;2.97;2.28;;;;;;;20.15;100.00;94530.00;5054253;28;20202;-59
2022/07/09 11:01:47;;;;;;;3.08;2.70;;;;;;;20.14;100.00;94504.38;5054378;28;20701;-65
2022/07/09 11:04:30;;;;;;;2.72;2.03;;;;;;;19.57;100.00;94464.19;5054407;28;20206;-62
2022/07/09 11:06:56;;;;;;;2.80;2.60;;;;;;;19.02;100.00;94448.66;5054160;28;20263;-63
2022/07/09 11:09:22;;;;;;;3.00;2.72;;;;;;;19.02;100.00;94449.47;5054006;28;20628;-63
2022/07/09 11:11:48;;;;;;;6.10;3.35;;;;;;;19.04;100.00;94451.84;5053603;28;20285;-62
2022/07/09 11:14:14;;;;;;;4.55;3.00;;;;;;;19.08;100.00;94469.34;5053736;28;20284;-64
2022/07/09 11:16:39;;;;;;;6.00;2.95;;;;;;;19.14;100.00;94462.63;5053917;28;20603;-62
2022/07/09 11:19:19;;;;;;;4.20;2.17;;;;;;;18.78;100.00;94459.34;5053646;28;20205;-64
2022/07/09 11:21:45;;;;;;;2.67;2.22;;;;;;;18.61;100.00;94457.97;5053526;28;20560;-63